Saturday, December 27, 2014, 3:43 PM EST

KDOV, Dover Air Force Base

Location: Dover, DE, United States Lat: 39.133
Local Time: 3:43 PM EST (20:43 GMT) Lon: -75.467
Time Zone: US/Eastern Elev: 29 ft

Show me the last for .
Show Decoded

2014-12-27 14:58 METAR KDOV 271958Z AUTO 10004KT 10SM CLR 11/05 A3020 =
2014-12-27 13:58 METAR KDOV 271858Z AUTO 09006KT 10SM CLR 11/05 A3018 RMK AO2 SLP223 T01120053 =
2014-12-27 12:58 METAR KDOV 271758Z AUTO 32002KT 10SM CLR 12/04 A3021 =
2014-12-27 11:58 METAR KDOV 271658Z AUTO 29002KT 10SM CLR 11/04 A3024 =
2014-12-27 10:58 METAR KDOV 271558Z AUTO 36001KT 10SM BKN170 09/04 A3027 =
2014-12-27 08:58 METAR KDOV 271358Z AUTO 00000KT 7SM BKN180 03/03 A3028 =
2014-12-27 07:58 METAR KDOV 271258Z AUTO 00000KT 8SM BKN170 00/00 A3028 RMK AO2 SLP257 T00030003
                 =
2014-12-27 06:58 METAR KDOV 271158Z AUTO 16005KT 10SM FEW180 SCT230 01/01 A3026 =
2014-12-27 05:58 METAR KDOV 271058Z AUTO 15002KT 10SM OVC230 01/01 A3025 RMK AO2 SLP247 T00130011
                 =
2014-12-27 04:58 METAR KDOV 270958Z AUTO 00000KT 10SM CLR 02/01 A3024 RMK AO2 SLP244 T00170010 =
2014-12-27 03:58 METAR KDOV 270858Z AUTO 23001KT 10SM CLR 01/01 A3023 RMK AO2 SLP240 T00130005
                 50001 =
2014-12-27 02:58 METAR KDOV 270758Z AUTO 20005KT 10SM CLR 02/00 A3022 =
2014-12-27 01:58 METAR KDOV 270658Z AUTO 21006KT 10SM CLR 02/00 A3023 RMK AO2 SLP240 T00190001 =
2014-12-27 00:58 METAR KDOV 270558Z AUTO 24004KT 10SM CLR 02/00 A3022 RMK AO2 SLP237 T00211000
                 10056 20020 57019 =
2014-12-26 23:58 METAR KDOV 270458Z AUTO 21007KT 10SM CLR 03/00 A3023 RMK AO2 SLP240 T00261000
                 401090008 =
2014-12-26 22:58 METAR KDOV 270358Z AUTO 20005KT 10SM CLR 03/00 A3025 =
2014-12-26 21:58 METAR KDOV 270258Z AUTO 20006KT 10SM CLR 03/01 A3028 =
2014-12-26 20:58 METAR KDOV 270158Z AUTO 22006KT 10SM CLR 04/00 A3028 =
2014-12-26 19:58 METAR KDOV 270058Z AUTO 22005KT 10SM CLR 04/00 A3027 =
2014-12-26 18:58 METAR KDOV 262358Z AUTO 20005KT 10SM CLR 06/00 A3026 RMK AO2 SLP250 T00561001
                 10109 20056 52008 =
2014-12-26 17:58 METAR KDOV 262258Z AUTO 21004KT 10SM CLR 07/00 A3024 =
2014-12-26 16:58 METAR KDOV 262158Z AUTO 23004KT 10SM CLR 08/M01 A3024 =
2014-12-26 15:58 METAR KDOV 262058Z AUTO 25006KT 10SM CLR 10/M01 A3023 =

Support USWX by starting your Amazon purchase here.